createdAt,value
2023-05-03T00:01:38.177Z,102487.56
2023-05-03T00:04:06.228Z,102483.16
2023-05-03T00:06:34.183Z,102477.00
2023-05-03T00:09:02.501Z,102481.41
2023-05-03T00:11:30.388Z,102482.38
2023-05-03T00:13:58.253Z,102481.63
2023-05-03T00:16:27.628Z,102484.38
2023-05-03T00:18:55.500Z,102486.19
2023-05-03T00:21:23.367Z,102481.84
2023-05-03T00:23:51.272Z,102489.09
2023-05-03T00:26:19.295Z,102485.69
2023-05-03T00:28:47.182Z,102481.34
2023-05-03T00:31:15.356Z,102480.47
2023-05-03T00:33:44.699Z,102484.25
2023-05-03T00:36:13.360Z,102479.94
2023-05-03T00:38:41.492Z,102485.31
2023-05-03T00:41:10.787Z,102479.25
2023-05-03T00:43:38.740Z,102478.38
2023-05-03T00:46:16.138Z,102473.94
2023-05-03T00:48:46.952Z,102469.56
2023-05-03T00:51:15.548Z,102474.13
2023-05-03T00:53:43.839Z,102476.84
2023-05-03T00:56:12.350Z,102468.09
2023-05-03T00:58:40.698Z,102461.03
2023-05-03T01:01:08.855Z,102465.63
2023-05-03T01:03:37.728Z,102466.59
2023-05-03T01:06:11.887Z,102462.97
2023-05-03T01:08:42.488Z,102448.91
2023-05-03T01:11:13.283Z,102449.13
2023-05-03T01:13:44.540Z,102454.53
2023-05-03T01:16:15.794Z,102440.38
2023-05-03T01:18:46.653Z,102449.34
2023-05-03T01:21:16.720Z,102442.38
2023-05-03T01:23:47.548Z,102441.53
2023-05-03T01:26:22.510Z,102437.97
2023-05-03T01:28:50.399Z,102445.25
2023-05-03T01:31:22.094Z,102433.72
2023-05-03T01:33:54.997Z,102428.44
2023-05-03T01:36:24.348Z,102427.66
2023-05-03T01:38:52.228Z,102428.59
2023-05-03T01:41:20.100Z,102420.66
2023-05-03T01:43:49.371Z,102413.50
2023-05-03T01:46:17.302Z,102411.81
2023-05-03T01:48:45.219Z,102412.81
2023-05-03T01:51:13.109Z,102403.88
2023-05-03T01:53:41.844Z,102404.81
2023-05-03T01:56:09.916Z,102400.38
2023-05-03T01:58:37.834Z,102396.94
2023-05-03T02:01:08.030Z,102395.16
2023-05-03T02:03:36.064Z,102404.06
2023-05-03T02:06:04.000Z,102397.84
2023-05-03T02:08:31.944Z,102400.56
2023-05-03T02:10:59.799Z,102404.16
2023-05-03T02:13:27.676Z,102398.88
2023-05-03T02:15:56.101Z,102392.69
2023-05-03T02:18:26.290Z,102376.19
2023-05-03T02:20:54.133Z,102389.19
2023-05-03T02:23:22.070Z,102401.75
2023-05-03T02:25:50.212Z,102384.72
2023-05-03T02:28:18.137Z,102387.44
2023-05-03T02:30:46.150Z,102382.09
2023-05-03T02:33:14.053Z,102390.16
2023-05-03T02:35:43.746Z,102388.38
2023-05-03T02:38:11.759Z,102400.84
2023-05-03T02:40:39.640Z,102400.78
2023-05-03T02:43:07.558Z,102400.78
2023-05-03T02:45:36.592Z,102397.16
2023-05-03T02:48:04.805Z,102395.38
2023-05-03T02:50:32.713Z,102387.34
2023-05-03T02:53:02.104Z,102375.72
2023-05-03T02:55:29.995Z,102385.50
2023-05-03T02:57:57.861Z,102374.81
2023-05-03T03:00:25.773Z,102376.59
2023-05-03T03:02:53.650Z,102373.84
2023-05-03T03:05:21.784Z,102369.41
2023-05-03T03:07:49.630Z,102377.41
2023-05-03T03:10:19.108Z,102378.31
2023-05-03T03:12:47.447Z,102385.41
2023-05-03T03:15:15.287Z,102375.56
2023-05-03T03:17:43.204Z,102371.94
2023-05-03T03:20:12.889Z,102366.66
2023-05-03T03:22:40.917Z,102375.53
2023-05-03T03:25:10.596Z,102368.28
2023-05-03T03:27:40.072Z,102366.59
2023-05-03T03:30:09.590Z,102366.59
2023-05-03T03:32:37.616Z,102362.13
2023-05-03T03:35:06.204Z,102354.97
2023-05-03T03:37:34.116Z,102353.34
2023-05-03T03:40:02.225Z,102350.69
2023-05-03T03:42:30.328Z,102347.19
2023-05-03T03:44:59.616Z,102346.22
2023-05-03T03:47:27.587Z,102342.66
2023-05-03T03:49:55.726Z,102338.34
2023-05-03T03:52:23.626Z,102335.81
2023-05-03T03:54:51.546Z,102334.94
2023-05-03T03:57:19.422Z,102339.53
2023-05-03T03:59:47.316Z,102331.66
2023-05-03T04:02:16.605Z,102328.06
2023-05-03T04:04:44.499Z,102339.72
2023-05-03T04:07:12.656Z,102333.59
2023-05-03T04:09:40.558Z,102330.09
2023-05-03T04:12:08.606Z,102328.38
2023-05-03T04:14:36.466Z,102324.03
2023-05-03T04:17:04.770Z,102323.28
2023-05-03T04:19:34.162Z,102324.31
2023-05-03T04:22:02.115Z,102320.00
2023-05-03T04:24:30.640Z,102319.09
2023-05-03T04:26:58.894Z,102294.78
2023-05-03T04:29:27.192Z,102322.06
2023-05-03T04:31:55.067Z,102313.34
2023-05-03T04:34:23.557Z,102317.72
2023-05-03T04:36:52.829Z,102316.91
2023-05-03T04:39:22.124Z,102321.38
2023-05-03T04:41:50.007Z,102315.19
2023-05-03T04:44:17.901Z,102313.50
2023-05-03T04:46:46.774Z,102315.34
2023-05-03T04:49:15.711Z,102312.66
2023-05-03T04:51:43.660Z,102326.03
2023-05-03T04:54:12.972Z,102330.47
2023-05-03T04:56:40.842Z,102327.81
2023-05-03T04:59:09.102Z,102334.00
2023-05-03T05:01:36.954Z,102334.91
2023-05-03T05:04:05.039Z,102338.41
2023-05-03T05:06:32.966Z,102329.50
2023-05-03T05:09:01.002Z,102332.09
2023-05-03T05:11:30.273Z,102335.66
2023-05-03T05:13:58.183Z,102344.56
2023-05-03T05:16:26.824Z,102342.56
2023-05-03T05:18:54.710Z,102343.47
2023-05-03T05:21:22.582Z,102346.00
2023-05-03T05:23:50.510Z,102351.34
2023-05-03T05:26:18.396Z,102350.34
2023-05-03T05:28:47.631Z,102357.34
2023-05-03T05:31:15.690Z,102355.53
2023-05-03T05:33:43.583Z,102360.66
2023-05-03T05:36:11.457Z,102357.94
2023-05-03T05:38:39.294Z,102359.53
2023-05-03T05:41:07.269Z,102364.81
2023-05-03T05:43:35.130Z,102368.19
2023-05-03T05:46:04.826Z,102368.88
2023-05-03T05:48:32.671Z,102375.00
2023-05-03T05:51:00.507Z,102374.88
2023-05-03T05:53:28.615Z,102372.06
2023-05-03T05:55:56.563Z,102370.06
2023-05-03T05:58:24.649Z,102374.47
2023-05-03T06:00:52.896Z,102385.81
2023-05-03T06:03:22.213Z,102385.59
2023-05-03T06:05:50.459Z,102386.34
2023-05-03T06:08:18.313Z,102375.56
2023-05-03T06:10:46.174Z,102389.38
2023-05-03T06:13:14.064Z,102396.22
2023-05-03T06:15:42.140Z,102387.06
2023-05-03T06:18:10.118Z,102395.75
2023-05-03T06:20:39.529Z,102395.59
2023-05-03T06:23:07.443Z,102391.00
2023-05-03T06:25:36.250Z,102397.13
2023-05-03T06:28:04.653Z,102396.97
2023-05-03T06:30:32.721Z,102403.00
2023-05-03T06:33:00.680Z,102402.81
2023-05-03T06:35:28.641Z,102394.56
2023-05-03T06:37:57.958Z,102397.13
2023-05-03T06:40:27.399Z,102388.13
2023-05-03T06:42:55.319Z,102390.66
2023-05-03T06:45:23.222Z,102389.63
2023-05-03T06:47:51.224Z,102383.19
2023-05-03T06:50:20.181Z,102380.44
2023-05-03T06:52:48.621Z,102375.91
2023-05-03T06:55:18.087Z,102375.72
2023-05-03T06:57:47.628Z,102374.69
2023-05-03T07:00:16.534Z,102371.03
2023-05-03T07:02:44.522Z,102370.84
2023-05-03T07:05:12.752Z,102375.34
2023-05-03T07:07:40.634Z,102379.75
2023-05-03T07:10:09.229Z,102376.97
2023-05-03T07:12:38.476Z,102377.09
2023-05-03T07:15:07.144Z,102378.88
2023-05-03T07:17:35.077Z,102376.34
2023-05-03T07:20:03.898Z,102377.31
2023-05-03T07:22:31.995Z,102364.66
2023-05-03T07:25:00.091Z,102373.34
2023-05-03T07:27:28.251Z,102365.91
2023-05-03T07:29:57.840Z,102377.22
2023-05-03T07:32:25.909Z,102367.06
2023-05-03T07:34:53.880Z,102369.41
2023-05-03T07:37:22.372Z,102373.44
2023-05-03T07:39:52.159Z,102366.03
2023-05-03T07:42:20.021Z,102369.16
2023-05-03T07:44:47.905Z,102373.41
2023-05-03T07:47:17.240Z,102365.22
2023-05-03T07:49:45.142Z,102366.81
2023-05-03T07:52:13.057Z,102366.44
2023-05-03T07:54:43.036Z,102366.34
2023-05-03T07:57:10.961Z,102357.91
2023-05-03T07:59:39.016Z,102361.81
2023-05-03T08:02:07.020Z,102355.78
2023-05-03T08:04:36.593Z,102355.31
2023-05-03T08:07:04.717Z,102354.03
2023-05-03T08:09:32.546Z,102351.47
2023-05-03T08:12:00.400Z,102334.44
2023-05-03T08:14:28.515Z,102337.09
2023-05-03T08:16:56.445Z,102339.59
2023-05-03T08:19:24.292Z,102344.59
2023-05-03T08:21:54.540Z,102340.59
2023-05-03T08:24:22.427Z,102341.50
2023-05-03T08:26:52.707Z,102323.75
2023-05-03T08:29:21.153Z,102331.94
2023-05-03T08:31:49.251Z,102338.06
2023-05-03T08:34:17.219Z,102327.25
2023-05-03T08:36:45.567Z,102343.25
2023-05-03T08:39:15.380Z,102343.63
2023-05-03T08:41:43.358Z,102340.72
2023-05-03T08:44:13.672Z,102338.91
2023-05-03T08:46:41.580Z,102338.81
2023-05-03T08:49:09.461Z,102343.25
2023-05-03T08:51:37.446Z,102331.56
2023-05-03T08:54:05.552Z,102337.72
2023-05-03T08:56:36.514Z,102338.75
2023-05-03T08:59:07.973Z,102338.63
2023-05-03T09:01:36.933Z,102336.50
2023-05-03T09:04:05.322Z,102336.09
2023-05-03T09:06:34.283Z,102331.41
2023-05-03T09:09:02.568Z,102320.13
2023-05-03T09:11:31.037Z,102325.09
2023-05-03T09:14:11.038Z,102335.28
2023-05-03T09:16:39.294Z,102332.78
2023-05-03T09:19:09.489Z,102331.13
2023-05-03T09:21:37.392Z,102322.44
2023-05-03T09:24:13.667Z,102321.78
2023-05-03T09:26:42.304Z,102310.44
2023-05-03T09:29:11.541Z,102308.13
2023-05-03T09:31:39.572Z,102303.75
2023-05-03T09:34:22.333Z,102304.69
2023-05-03T09:36:50.246Z,102296.09
2023-05-03T09:39:18.264Z,102289.16
2023-05-03T09:41:46.186Z,102284.94
2023-05-03T09:44:15.482Z,102293.41
2023-05-03T09:46:59.287Z,102280.59
2023-05-03T09:49:27.179Z,102285.94
2023-05-03T09:51:55.113Z,102283.81
2023-05-03T09:54:23.684Z,102286.25
2023-05-03T09:56:53.138Z,102280.59
2023-05-03T09:59:22.359Z,102284.19
2023-05-03T10:01:50.418Z,102280.19
2023-05-03T10:04:19.744Z,102284.09
2023-05-03T10:06:48.429Z,102273.47
2023-05-03T10:09:30.158Z,102272.69
2023-05-03T10:12:00.330Z,102272.13
2023-05-03T10:14:29.719Z,102273.72
2023-05-03T10:17:00.777Z,102271.47
2023-05-03T10:19:30.720Z,102261.31
2023-05-03T10:22:04.764Z,102265.50
2023-05-03T10:24:32.754Z,102264.13
2023-05-03T10:27:00.715Z,102260.22
2023-05-03T10:29:54.019Z,102263.88
2023-05-03T10:32:32.460Z,102266.81
2023-05-03T10:35:05.813Z,102259.97
2023-05-03T10:37:34.557Z,102268.47
2023-05-03T10:40:13.805Z,102264.41
2023-05-03T10:42:45.013Z,102248.56
2023-05-03T10:45:25.895Z,102237.38
2023-05-03T10:48:32.464Z,102238.63
2023-05-03T10:51:38.943Z,102232.81
2023-05-03T10:54:07.690Z,102243.63
2023-05-03T10:56:35.523Z,102242.22
2023-05-03T10:59:03.465Z,102235.19
2023-05-03T11:01:34.388Z,102219.63
2023-05-03T11:04:05.384Z,102218.66
2023-05-03T11:06:34.508Z,102206.25
2023-05-03T11:09:03.806Z,102201.75
2023-05-03T11:11:32.270Z,102199.69
2023-05-03T11:14:00.203Z,102199.28
2023-05-03T11:16:28.423Z,102187.16
2023-05-03T11:18:57.793Z,102186.97
2023-05-03T11:21:26.209Z,102197.97
2023-05-03T11:23:54.123Z,102190.91
2023-05-03T11:26:26.528Z,102184.59
2023-05-03T11:28:54.730Z,102179.28
2023-05-03T11:31:22.950Z,102188.00
2023-05-03T11:33:51.247Z,102178.47
2023-05-03T11:36:20.533Z,102178.34
2023-05-03T11:38:48.429Z,102185.03
2023-05-03T11:41:17.514Z,102173.84
2023-05-03T11:43:45.659Z,102176.84
2023-05-03T11:46:14.309Z,102150.69
2023-05-03T11:48:43.862Z,102158.41
2023-05-03T11:51:12.618Z,102145.88
2023-05-03T11:53:42.873Z,102146.75
2023-05-03T11:56:17.193Z,102132.66
2023-05-03T11:58:56.134Z,102127.94
2023-05-03T12:01:24.616Z,102128.94
2023-05-03T12:03:56.485Z,102133.28
2023-05-03T12:06:25.568Z,102130.25
2023-05-03T12:08:56.359Z,102130.41
2023-05-03T12:11:27.353Z,102123.63
2023-05-03T12:13:59.974Z,102120.25
2023-05-03T12:16:28.203Z,102118.63
2023-05-03T12:18:58.782Z,102107.75
2023-05-03T12:21:54.088Z,102112.84
2023-05-03T12:24:29.010Z,102099.75
2023-05-03T12:26:57.836Z,102096.44
2023-05-03T12:29:25.785Z,102105.19
2023-05-03T12:31:53.758Z,102079.13
2023-05-03T12:34:33.900Z,102083.69
2023-05-03T12:37:06.081Z,102074.03
2023-05-03T12:39:39.207Z,102079.50
2023-05-03T12:42:08.875Z,102067.22
2023-05-03T12:44:41.704Z,102065.66
2023-05-03T12:47:10.537Z,102070.47
2023-05-03T12:49:39.641Z,102062.78
2023-05-03T12:54:42.262Z,102064.72
2023-05-03T12:57:15.698Z,102062.22
2023-05-03T12:59:50.420Z,102055.28
2023-05-03T13:03:19.484Z,102048.81
2023-05-03T13:05:12.583Z,102049.41
2023-05-03T13:07:55.702Z,102034.34
2023-05-03T13:10:27.130Z,102026.00
2023-05-03T13:12:55.384Z,102027.72
2023-05-03T13:15:25.099Z,102025.31
2023-05-03T13:17:54.437Z,102021.13
2023-05-03T13:20:22.711Z,102022.41
2023-05-03T13:22:50.583Z,102013.53
2023-05-03T13:25:18.551Z,102011.34
2023-05-03T13:27:50.307Z,102009.97
2023-05-03T13:30:21.441Z,102009.94
2023-05-03T13:32:49.373Z,102003.16
2023-05-03T13:35:18.049Z,102009.81
2023-05-03T13:37:45.934Z,101993.81
2023-05-03T13:40:15.338Z,102000.44
2023-05-03T13:42:43.236Z,101991.69
2023-05-03T13:45:13.636Z,101994.97
2023-05-03T13:48:04.876Z,102000.56
2023-05-03T13:50:30.396Z,101980.03
2023-05-03T13:52:58.366Z,101980.03
2023-05-03T13:55:27.076Z,101989.66
2023-05-03T13:57:55.060Z,101972.41
2023-05-03T14:00:24.627Z,101979.00
2023-05-03T14:02:52.591Z,101958.75
2023-05-03T14:05:20.892Z,101973.75
2023-05-03T14:07:48.855Z,101963.34
2023-05-03T14:12:45.289Z,101960.97
2023-05-03T14:15:13.574Z,101962.22
2023-05-03T14:17:43.630Z,101957.31
2023-05-03T14:20:12.429Z,101952.81
2023-05-03T14:22:40.485Z,101955.78
2023-05-03T14:25:09.657Z,101939.38
2023-05-03T14:27:37.597Z,101947.34
2023-05-03T14:30:07.296Z,101945.97
2023-05-03T14:32:35.283Z,101934.28
2023-05-03T14:35:05.019Z,101928.19
2023-05-03T14:37:33.354Z,101920.03
2023-05-03T14:40:02.234Z,101917.00
2023-05-03T14:42:32.031Z,101909.78
2023-05-03T14:44:59.930Z,101917.16
2023-05-03T14:47:27.935Z,101917.44
2023-05-03T14:49:56.321Z,101906.50
2023-05-03T14:52:25.574Z,101890.97
2023-05-03T14:54:54.555Z,101902.75
2023-05-03T14:57:22.471Z,101898.16
2023-05-03T14:59:50.512Z,101892.97
2023-05-03T15:02:19.259Z,101890.25
2023-05-03T15:04:47.300Z,101886.81
2023-05-03T15:07:15.475Z,101885.13
2023-05-03T15:09:44.900Z,101876.72
2023-05-03T15:12:12.817Z,101872.28
2023-05-03T15:14:40.867Z,101868.84
2023-05-03T15:17:08.895Z,101859.91
2023-05-03T15:19:37.007Z,101866.81
2023-05-03T15:22:04.887Z,101871.28
2023-05-03T15:24:32.933Z,101846.97
2023-05-03T15:27:04.618Z,101850.66
2023-05-03T15:29:32.521Z,101856.44
2023-05-03T15:32:01.701Z,101861.69
2023-05-03T15:34:29.618Z,101847.63
2023-05-03T15:36:57.558Z,101847.91
2023-05-03T15:39:25.420Z,101848.88
2023-05-03T15:41:53.499Z,101835.22
2023-05-03T15:44:22.789Z,101834.50
2023-05-03T15:46:50.914Z,101838.50
2023-05-03T15:49:18.851Z,101840.19
2023-05-03T15:51:47.082Z,101838.88
2023-05-03T15:54:14.984Z,101832.22
2023-05-03T15:56:43.017Z,101830.63
2023-05-03T15:59:15.005Z,101828.03
2023-05-03T16:01:44.370Z,101823.25
2023-05-03T16:04:12.251Z,101829.91
2023-05-03T16:06:40.365Z,101821.25
2023-05-03T16:09:08.275Z,101826.84
2023-05-03T16:11:36.340Z,101825.25
2023-05-03T16:14:04.909Z,101823.06
2023-05-03T16:16:32.818Z,101819.75
2023-05-03T16:19:02.114Z,101817.63
2023-05-03T16:21:30.080Z,101808.25
2023-05-03T16:23:57.942Z,101810.38
2023-05-03T16:26:26.078Z,101814.06
2023-05-03T16:28:53.956Z,101807.16
2023-05-03T16:31:22.965Z,101816.94
2023-05-03T16:33:50.940Z,101805.72
2023-05-03T16:36:20.187Z,101804.72
2023-05-03T16:38:48.891Z,101805.06
2023-05-03T16:41:16.773Z,101804.22
2023-05-03T16:43:44.739Z,101822.56
2023-05-03T16:46:12.804Z,101806.66
2023-05-03T16:48:40.745Z,101804.22
2023-05-03T16:51:08.750Z,101798.81
2023-05-03T16:53:38.029Z,101792.53
2023-05-03T16:56:06.400Z,101798.66
2023-05-03T16:58:34.267Z,101795.81
2023-05-03T17:01:02.459Z,101798.03
2023-05-03T17:03:30.784Z,101801.34
2023-05-03T17:06:01.416Z,101805.13
2023-05-03T17:08:30.236Z,101804.97
2023-05-03T17:11:01.546Z,101804.19
2023-05-03T17:13:29.560Z,101802.88
2023-05-03T17:15:57.434Z,101802.31
2023-05-03T17:18:25.403Z,101799.25
2023-05-03T17:20:53.358Z,101782.13
2023-05-03T17:23:21.337Z,101781.97
2023-05-03T17:25:56.322Z,101790.03
2023-05-03T17:28:25.561Z,101787.00
2023-05-03T17:30:55.102Z,101774.22
2023-05-03T17:33:22.981Z,101773.28
2023-05-03T17:35:51.219Z,101762.13
2023-05-03T17:38:19.925Z,101762.25
2023-05-03T17:40:48.900Z,101754.25
2023-05-03T17:43:17.719Z,101760.41
2023-05-03T17:45:48.426Z,101754.88
2023-05-03T17:48:18.481Z,101763.50
2023-05-03T17:50:46.771Z,101767.59
2023-05-03T17:53:18.401Z,101753.84
2023-05-03T17:55:46.313Z,101771.22
2023-05-03T17:58:14.143Z,101771.53
2023-05-03T18:00:43.196Z,101764.81
2023-05-03T18:03:13.361Z,101755.31
2023-05-03T18:05:41.314Z,101748.28
2023-05-03T18:08:09.349Z,101742.75
2023-05-03T18:10:37.408Z,101739.88
2023-05-03T18:13:05.489Z,101744.34
2023-05-03T18:15:33.393Z,101738.81
2023-05-03T18:18:01.315Z,101741.63
2023-05-03T18:20:31.040Z,101740.50
2023-05-03T18:22:58.929Z,101740.41
2023-05-03T18:25:26.884Z,101758.16
2023-05-03T18:27:54.791Z,101751.50
2023-05-03T18:30:23.404Z,101756.56
2023-05-03T18:32:51.345Z,101757.81
2023-05-03T18:35:19.514Z,101762.66
2023-05-03T18:37:48.723Z,101773.78
2023-05-03T18:40:17.124Z,101768.94
2023-05-03T18:42:45.139Z,101763.84
2023-05-03T18:45:15.130Z,101775.00
2023-05-03T18:47:43.029Z,101768.84
2023-05-03T18:50:11.293Z,101777.97
2023-05-03T18:52:39.756Z,101777.38
2023-05-03T18:55:09.774Z,101782.19
2023-05-03T18:57:38.191Z,101778.03
2023-05-03T19:00:07.415Z,101784.47
2023-05-03T19:02:35.325Z,101780.81
2023-05-03T19:05:03.253Z,101777.34
2023-05-03T19:07:31.224Z,101776.75
2023-05-03T19:09:59.155Z,101781.59
2023-05-03T19:12:28.480Z,101774.69
2023-05-03T19:14:56.430Z,101773.41
2023-05-03T19:17:24.433Z,101776.78
2023-05-03T19:19:52.376Z,101771.06
2023-05-03T19:22:20.298Z,101775.16
2023-05-03T19:24:48.246Z,101782.03
2023-05-03T19:27:16.963Z,101775.44
2023-05-03T19:29:46.325Z,101771.66
2023-05-03T19:32:14.459Z,101764.22
2023-05-03T19:34:42.426Z,101763.00
2023-05-03T19:37:10.574Z,101761.78
2023-05-03T19:39:38.651Z,101758.66
2023-05-03T19:42:10.148Z,101749.28
2023-05-03T19:44:38.121Z,101744.31
2023-05-03T19:47:07.445Z,101746.56
2023-05-03T19:49:35.308Z,101747.09
2023-05-03T19:52:06.079Z,101760.09
2023-05-03T19:54:34.055Z,101750.63
2023-05-03T19:57:04.747Z,101746.28
2023-05-03T19:59:32.669Z,101738.53
2023-05-03T20:02:00.641Z,101736.84
2023-05-03T20:04:30.065Z,101741.53
2023-05-03T20:06:57.984Z,101742.69
2023-05-03T20:09:26.102Z,101747.13
2023-05-03T20:11:58.771Z,101742.69
2023-05-03T20:14:27.250Z,101734.84
2023-05-03T20:16:56.997Z,101729.53
2023-05-03T20:19:25.578Z,101722.75
2023-05-03T20:21:54.817Z,101727.50
2023-05-03T20:24:22.754Z,101740.19
2023-05-03T20:26:50.704Z,101732.13
2023-05-03T20:29:18.695Z,101736.63
2023-05-03T20:31:48.323Z,101743.03
2023-05-03T20:34:16.746Z,101732.38
2023-05-03T20:36:44.965Z,101708.78
2023-05-03T20:39:14.717Z,101718.25
2023-05-03T20:41:42.566Z,101722.97
2023-05-03T20:44:10.558Z,101715.03
2023-05-03T20:46:38.968Z,101710.53
2023-05-03T20:49:08.302Z,101717.47
2023-05-03T20:51:37.750Z,101710.22
2023-05-03T20:54:05.868Z,101712.66
2023-05-03T20:56:35.121Z,101707.13
2023-05-03T20:59:03.787Z,101706.09
2023-05-03T21:01:32.047Z,101702.31
2023-05-03T21:03:59.938Z,101716.44
2023-05-03T21:06:28.244Z,101710.84
2023-05-03T21:08:56.148Z,101703.47
2023-05-03T21:11:24.022Z,101700.75
2023-05-03T21:13:53.656Z,101697.09
2023-05-03T21:16:21.533Z,101697.88
2023-05-03T21:18:49.404Z,101695.03
2023-05-03T21:21:17.359Z,101685.09
2023-05-03T21:23:45.369Z,101671.75
2023-05-03T21:26:13.343Z,101671.50
2023-05-03T21:28:41.331Z,101674.09
2023-05-03T21:31:10.643Z,101663.22
2023-05-03T21:33:38.617Z,101661.63
2023-05-03T21:36:07.049Z,101667.94
2023-05-03T21:38:35.898Z,101656.25
2023-05-03T21:41:05.227Z,101653.66
2023-05-03T21:43:33.341Z,101646.56
2023-05-03T21:46:01.259Z,101627.94
2023-05-03T21:48:31.368Z,101617.38
2023-05-03T21:50:59.243Z,101629.91
2023-05-03T21:53:27.140Z,101632.44
2023-05-03T21:55:55.078Z,101637.91
2023-05-03T21:58:22.998Z,101629.66
2023-05-03T22:00:50.837Z,101618.00
2023-05-03T22:03:18.898Z,101611.75
2023-05-03T22:05:50.467Z,101596.44
2023-05-03T22:08:19.096Z,101582.06
2023-05-03T22:10:46.992Z,101557.47
2023-05-03T22:13:14.960Z,101558.84
2023-05-03T22:15:42.938Z,101561.53
2023-05-03T22:18:11.512Z,101547.97
2023-05-03T22:20:39.430Z,101565.09
2023-05-03T22:23:08.757Z,101572.28
2023-05-03T22:25:36.647Z,101570.38
2023-05-03T22:28:04.537Z,101572.38
2023-05-03T22:30:32.410Z,101562.25
2023-05-03T22:33:00.315Z,101543.63
2023-05-03T22:35:28.533Z,101537.38
2023-05-03T22:37:56.414Z,101537.38
2023-05-03T22:40:25.836Z,101556.19
2023-05-03T22:42:53.732Z,101567.88
2023-05-03T22:45:21.717Z,101565.00
2023-05-03T22:47:49.759Z,101563.28
2023-05-03T22:50:17.853Z,101549.09
2023-05-03T22:52:45.745Z,101564.22
2023-05-03T22:55:13.812Z,101565.97
2023-05-03T22:57:43.080Z,101542.84
2023-05-03T23:00:12.402Z,101523.38
2023-05-03T23:02:40.319Z,101535.06
2023-05-03T23:05:09.184Z,101537.06
2023-05-03T23:07:37.078Z,101534.44
2023-05-03T23:10:06.132Z,101524.72
2023-05-03T23:12:34.608Z,101531.06
2023-05-03T23:15:03.902Z,101539.28
2023-05-03T23:17:31.804Z,101523.25
2023-05-03T23:19:59.714Z,101544.22
2023-05-03T23:22:27.615Z,101537.03
2023-05-03T23:24:55.481Z,101531.81
2023-05-03T23:27:23.338Z,101531.91
2023-05-03T23:29:52.007Z,101527.59
2023-05-03T23:32:21.973Z,101540.28
2023-05-03T23:34:50.151Z,101541.16
2023-05-03T23:37:18.025Z,101558.44
2023-05-03T23:39:45.920Z,101552.22
2023-05-03T23:42:13.865Z,101557.66
2023-05-03T23:44:50.864Z,101545.34
2023-05-03T23:47:23.658Z,101538.06
2023-05-03T23:49:52.007Z,101550.16
2023-05-03T23:52:20.495Z,101545.94
2023-05-03T23:54:48.598Z,101534.66
2023-05-03T23:57:16.474Z,101540.19
2023-05-03T23:59:44.358Z,101527.09
